createdAt,value
2018-09-13T00:00:11.088Z,1022.77
2018-09-13T00:01:20.933Z,1022.83
2018-09-13T00:02:30.227Z,1022.83
2018-09-13T00:03:39.797Z,1022.82
2018-09-13T00:04:49.412Z,1022.81
2018-09-13T00:05:59.007Z,1022.85
2018-09-13T00:07:09.147Z,1022.8
2018-09-13T00:08:18.724Z,1022.78
2018-09-13T00:09:28.296Z,1022.76
2018-09-13T00:10:38.140Z,1022.74
2018-09-13T00:11:47.981Z,1022.75
2018-09-13T00:12:57.278Z,1022.74
2018-09-13T00:14:06.851Z,1022.73
2018-09-13T00:15:23.229Z,1022.76
2018-09-13T00:16:33.348Z,1022.77
2018-09-13T00:17:43.454Z,1022.79
2018-09-13T00:18:53.294Z,1022.74
2018-09-13T00:20:02.863Z,1022.76
2018-09-13T00:21:12.158Z,1022.8
2018-09-13T00:22:21.781Z,1022.78
2018-09-13T00:23:31.622Z,1022.8
2018-09-13T00:24:41.193Z,1022.79
2018-09-13T00:25:50.519Z,1022.77
2018-09-13T00:26:59.831Z,1022.82
2018-09-13T00:28:09.178Z,1022.83
2018-09-13T00:29:19.017Z,1022.83
2018-09-13T00:30:28.318Z,1022.77
2018-09-13T00:31:37.887Z,1022.78
2018-09-13T00:32:47.195Z,1022.76
2018-09-13T00:33:56.795Z,1022.75
2018-09-13T00:35:06.647Z,1022.8
2018-09-13T00:36:16.757Z,1022.76
2018-09-13T00:37:26.364Z,1022.74
2018-09-13T00:38:35.965Z,1022.72
2018-09-13T00:39:45.856Z,1022.69
2018-09-13T00:40:55.428Z,1022.7
2018-09-13T00:42:05.266Z,1022.71
2018-09-13T00:43:15.106Z,1022.73
2018-09-13T00:44:24.454Z,1022.74
2018-09-13T00:45:34.288Z,1022.77
2018-09-13T00:46:43.587Z,1022.77
2018-09-13T00:47:53.164Z,1022.73
2018-09-13T00:49:03.002Z,1022.77
2018-09-13T00:50:12.850Z,1022.78
2018-09-13T00:51:22.692Z,1022.77
2018-09-13T00:52:31.999Z,1022.76
2018-09-13T00:53:41.302Z,1022.8
2018-09-13T00:54:50.869Z,1022.78
2018-09-13T00:56:00.162Z,1022.8
2018-09-13T00:57:09.736Z,1022.78
2018-09-13T00:58:19.310Z,1022.75
2018-09-13T00:59:29.448Z,1022.74
2018-09-13T01:00:39.528Z,1022.72
2018-09-13T01:01:49.102Z,1022.7
2018-09-13T01:02:58.403Z,1022.76
2018-09-13T01:04:08.237Z,1022.7
2018-09-13T01:05:18.077Z,1022.75
2018-09-13T01:06:27.917Z,1022.66
2018-09-13T01:07:38.046Z,1022.71
2018-09-13T01:08:47.617Z,1022.68
2018-09-13T01:09:57.468Z,1022.7
2018-09-13T01:11:07.040Z,1022.76
2018-09-13T01:12:16.335Z,1022.68
2018-09-13T01:13:25.912Z,1022.69
2018-09-13T01:14:35.799Z,1022.69
2018-09-13T01:15:45.364Z,1022.65
2018-09-13T01:16:55.502Z,1022.67
2018-09-13T01:18:04.532Z,1022.68
2018-09-13T01:19:14.708Z,1022.65
2018-09-13T01:20:24.280Z,1022.7
2018-09-13T01:21:34.388Z,1022.64
2018-09-13T01:22:44.273Z,1022.7
2018-09-13T01:23:54.175Z,1022.65
2018-09-13T01:25:03.479Z,1022.66
2018-09-13T01:26:13.619Z,1022.68
2018-09-13T01:27:23.184Z,1022.65
2018-09-13T01:28:32.752Z,1022.62
2018-09-13T01:29:42.321Z,1022.56
2018-09-13T01:30:52.158Z,1022.57
2018-09-13T01:32:01.728Z,1022.6
2018-09-13T01:33:11.565Z,1022.56
2018-09-13T01:34:21.397Z,1022.6
2018-09-13T01:35:31.245Z,1022.58
2018-09-13T01:36:40.812Z,1022.54
2018-09-13T01:37:50.389Z,1022.61
2018-09-13T01:38:59.957Z,1022.58
2018-09-13T01:40:10.064Z,1022.57
2018-09-13T01:41:19.668Z,1022.59
2018-09-13T01:42:29.778Z,1022.56
2018-09-13T01:43:39.347Z,1022.51
2018-09-13T01:44:49.183Z,1022.54
2018-09-13T01:45:59.301Z,1022.5
2018-09-13T01:47:09.434Z,1022.52
2018-09-13T01:48:19.047Z,1022.56
2018-09-13T01:49:28.665Z,1022.52
2018-09-13T01:50:38.503Z,1022.49
2018-09-13T01:51:48.344Z,1022.47
2018-09-13T01:52:57.905Z,1022.45
2018-09-13T01:54:06.665Z,1022.48
2018-09-13T01:55:16.238Z,1022.44
2018-09-13T01:56:25.812Z,1022.45
2018-09-13T01:57:35.647Z,1022.4
2018-09-13T01:58:44.681Z,1022.42
2018-09-13T01:59:54.254Z,1022.43
2018-09-13T02:01:04.098Z,1022.43
2018-09-13T02:02:13.670Z,1022.41
2018-09-13T02:03:22.973Z,1022.36
2018-09-13T02:04:32.794Z,1022.39
2018-09-13T02:05:42.641Z,1022.42
2018-09-13T02:06:52.483Z,1022.44
2018-09-13T02:08:02.297Z,1022.41
2018-09-13T02:09:11.869Z,1022.41
2018-09-13T02:10:21.434Z,1022.41
2018-09-13T02:11:31.273Z,1022.37
2018-09-13T02:12:41.121Z,1022.33
2018-09-13T02:13:50.421Z,1022.36
2018-09-13T02:15:00.271Z,1022.34
2018-09-13T02:16:09.850Z,1022.35
2018-09-13T02:17:19.955Z,1022.32
2018-09-13T02:18:29.257Z,1022.32
2018-09-13T02:19:39.096Z,1022.33
2018-09-13T02:20:48.933Z,1022.29
2018-09-13T02:21:58.512Z,1022.32
2018-09-13T02:23:08.619Z,1022.33
2018-09-13T02:24:18.743Z,1022.32
2018-09-13T02:25:28.585Z,1022.33
2018-09-13T02:26:38.453Z,1022.29
2018-09-13T02:27:48.304Z,1022.28
2018-09-13T02:28:58.182Z,1022.36
2018-09-13T02:30:07.216Z,1022.33
2018-09-13T02:31:17.386Z,1022.33
2018-09-13T02:32:27.509Z,1022.33
2018-09-13T02:33:36.543Z,1022.33
2018-09-13T02:34:46.660Z,1022.32
2018-09-13T02:35:56.506Z,1022.28
2018-09-13T02:37:06.358Z,1022.3
2018-09-13T02:38:16.507Z,1022.34
2018-09-13T02:39:26.637Z,1022.35
2018-09-13T02:40:35.933Z,1022.32
2018-09-13T02:41:46.073Z,1022.3
2018-09-13T02:42:55.655Z,1022.32
2018-09-13T02:44:05.857Z,1022.31
2018-09-13T02:45:15.425Z,1022.31
2018-09-13T02:46:25.006Z,1022.34
2018-09-13T02:47:34.309Z,1022.32
2018-09-13T02:48:43.885Z,1022.29
2018-09-13T02:49:54.000Z,1022.3
2018-09-13T02:51:03.896Z,1022.3
2018-09-13T02:52:13.763Z,1022.29
2018-09-13T02:53:23.879Z,1022.29
2018-09-13T02:54:33.995Z,1022.26
2018-09-13T02:55:44.101Z,1022.3
2018-09-13T02:56:53.947Z,1022.26
2018-09-13T02:58:03.517Z,1022.23
2018-09-13T02:59:13.093Z,1022.25
2018-09-13T03:00:22.672Z,1022.27
2018-09-13T03:01:32.793Z,1022.25
2018-09-13T03:02:42.649Z,1022.24
2018-09-13T03:03:52.501Z,1022.27
2018-09-13T03:05:02.391Z,1022.24
2018-09-13T03:06:11.964Z,1022.26
2018-09-13T03:07:22.318Z,1022.27
2018-09-13T03:08:31.894Z,1022.24
2018-09-13T03:09:41.467Z,1022.29
2018-09-13T03:10:51.354Z,1022.27
2018-09-13T03:12:00.920Z,1022.29
2018-09-13T03:13:10.767Z,1022.26
2018-09-13T03:14:20.611Z,1022.25
2018-09-13T03:15:30.456Z,1022.31
2018-09-13T03:16:40.294Z,1022.32
2018-09-13T03:17:50.409Z,1022.34
2018-09-13T03:19:00.523Z,1022.35
2018-09-13T03:20:10.367Z,1022.38
2018-09-13T03:21:19.674Z,1022.36
2018-09-13T03:22:29.516Z,1022.36
2018-09-13T03:23:39.624Z,1022.36
2018-09-13T03:24:49.486Z,1022.33
2018-09-13T03:25:59.055Z,1022.31
2018-09-13T03:27:08.901Z,1022.33
2018-09-13T03:28:19.061Z,1022.3
2018-09-13T03:29:29.172Z,1022.34
2018-09-13T03:30:39.022Z,1022.28
2018-09-13T03:31:48.878Z,1022.27
2018-09-13T03:32:58.728Z,1022.26
2018-09-13T03:34:08.841Z,1022.27
2018-09-13T03:35:18.421Z,1022.29
2018-09-13T03:36:28.263Z,1022.26
2018-09-13T03:37:38.105Z,1022.27
2018-09-13T03:38:47.945Z,1022.24
2018-09-13T03:39:57.297Z,1022.24
2018-09-13T03:41:07.165Z,1022.21
2018-09-13T03:42:17.305Z,1022.22
2018-09-13T03:43:26.889Z,1022.23
2018-09-13T03:44:36.730Z,1022.25
2018-09-13T03:45:46.769Z,1022.27
2018-09-13T03:46:56.687Z,1022.28
2018-09-13T03:48:06.538Z,1022.22
2018-09-13T03:49:16.670Z,1022.22
2018-09-13T03:50:26.513Z,1022.23
2018-09-13T03:51:36.399Z,1022.21
2018-09-13T03:52:46.273Z,1022.25
2018-09-13T03:53:56.390Z,1022.23
2018-09-13T03:55:05.701Z,1022.24
2018-09-13T03:56:15.542Z,1022.22
2018-09-13T03:57:25.429Z,1022.24
2018-09-13T03:58:35.550Z,1022.26
2018-09-13T03:59:45.660Z,1022.24
2018-09-13T04:00:55.499Z,1022.23
2018-09-13T04:02:05.079Z,1022.21
2018-09-13T04:03:14.702Z,1022.22
2018-09-13T04:04:24.291Z,1022.24
2018-09-13T04:05:34.144Z,1022.18
2018-09-13T04:06:43.713Z,1022.21
2018-09-13T04:07:53.803Z,1022.27
2018-09-13T04:09:03.649Z,1022.24
2018-09-13T04:10:13.376Z,1022.24
2018-09-13T04:11:23.227Z,1022.23
2018-09-13T04:12:33.354Z,1022.26
2018-09-13T04:13:43.184Z,1022.24
2018-09-13T04:14:53.296Z,1022.27
2018-09-13T04:16:02.904Z,1022.27
2018-09-13T04:17:12.482Z,1022.28
2018-09-13T04:18:22.588Z,1022.27
2018-09-13T04:19:32.660Z,1022.27
2018-09-13T04:20:42.501Z,1022.28
2018-09-13T04:21:52.356Z,1022.24
2018-09-13T04:23:02.196Z,1022.27
2018-09-13T04:24:12.056Z,1022.26
2018-09-13T04:25:21.919Z,1022.28
2018-09-13T04:26:31.773Z,1022.26
2018-09-13T04:27:41.878Z,1022.31
2018-09-13T04:28:52.035Z,1022.3
2018-09-13T04:30:01.899Z,1022.28
2018-09-13T04:31:11.753Z,1022.3
2018-09-13T04:32:21.323Z,1022.22
2018-09-13T04:33:30.623Z,1022.27
2018-09-13T04:34:40.218Z,1022.26
2018-09-13T04:35:49.925Z,1022.24
2018-09-13T04:37:00.358Z,1022.26
2018-09-13T04:38:09.932Z,1022.23
2018-09-13T04:39:19.507Z,1022.21
2018-09-13T04:40:29.616Z,1022.21
2018-09-13T04:41:39.472Z,1022.22
2018-09-13T04:42:49.308Z,1022.25
2018-09-13T04:43:59.148Z,1022.29
2018-09-13T04:45:09.318Z,1022.26
2018-09-13T04:46:19.167Z,1022.3
2018-09-13T04:47:29.275Z,1022.29
2018-09-13T04:48:39.381Z,1022.28
2018-09-13T04:49:48.966Z,1022.33
2018-09-13T04:50:58.799Z,1022.35
2018-09-13T04:52:08.640Z,1022.31
2018-09-13T04:53:18.750Z,1022.31
2018-09-13T04:54:28.318Z,1022.31
2018-09-13T04:55:38.157Z,1022.31
2018-09-13T04:56:47.458Z,1022.32
2018-09-13T04:57:57.301Z,1022.29
2018-09-13T04:59:07.186Z,1022.35
2018-09-13T05:00:17.048Z,1022.37
2018-09-13T05:01:27.415Z,1022.33
2018-09-13T05:02:37.501Z,1022.38
2018-09-13T05:03:47.071Z,1022.34
2018-09-13T05:04:56.936Z,1022.37
2018-09-13T05:06:07.052Z,1022.38
2018-09-13T05:07:16.626Z,1022.37
2018-09-13T05:08:25.960Z,1022.32
2018-09-13T05:09:35.534Z,1022.33
2018-09-13T05:10:45.105Z,1022.33
2018-09-13T05:11:54.675Z,1022.34
2018-09-13T05:13:03.981Z,1022.35
2018-09-13T05:14:14.103Z,1022.35
2018-09-13T05:15:23.399Z,1022.34
2018-09-13T05:16:32.969Z,1022.31
2018-09-13T05:17:42.815Z,1022.3
2018-09-13T05:18:52.393Z,1022.37
2018-09-13T05:20:01.689Z,1022.37
2018-09-13T05:21:11.260Z,1022.39
2018-09-13T05:22:21.158Z,1022.38
2018-09-13T05:23:31.025Z,1022.39
2018-09-13T05:24:40.356Z,1022.41
2018-09-13T05:25:49.928Z,1022.39
2018-09-13T05:26:59.506Z,1022.39
2018-09-13T05:28:09.345Z,1022.41
2018-09-13T05:29:18.939Z,1022.4
2018-09-13T05:30:29.078Z,1022.4
2018-09-13T05:31:39.316Z,1022.39
2018-09-13T05:32:49.597Z,1022.4
2018-09-13T05:33:59.440Z,1022.41
2018-09-13T05:35:09.262Z,1022.41
2018-09-13T05:36:19.374Z,1022.42
2018-09-13T05:37:29.213Z,1022.44
2018-09-13T05:38:38.518Z,1022.45
2018-09-13T05:39:48.837Z,1022.47
2018-09-13T05:40:58.675Z,1022.46
2018-09-13T05:42:08.796Z,1022.43
2018-09-13T05:43:17.823Z,1022.41
2018-09-13T05:44:27.442Z,1022.43
2018-09-13T05:45:37.414Z,1022.47
2018-09-13T05:46:46.755Z,1022.5
2018-09-13T05:47:56.870Z,1022.47
2018-09-13T05:49:06.707Z,1022.48
2018-09-13T05:50:16.830Z,1022.51
2018-09-13T05:51:26.942Z,1022.5
2018-09-13T05:52:36.606Z,1022.54
2018-09-13T05:53:45.913Z,1022.5
2018-09-13T05:54:55.494Z,1022.47
2018-09-13T05:56:04.528Z,1022.44
2018-09-13T05:57:14.385Z,1022.51
2018-09-13T05:58:24.219Z,1022.48
2018-09-13T05:59:33.790Z,1022.5
2018-09-13T06:00:43.634Z,1022.49
2018-09-13T06:01:53.740Z,1022.5
2018-09-13T06:03:03.581Z,1022.53
2018-09-13T06:04:13.151Z,1022.5
2018-09-13T06:05:22.745Z,1022.51
2018-09-13T06:06:32.312Z,1022.54
2018-09-13T06:07:41.893Z,1022.52
2018-09-13T06:08:51.874Z,1022.53
2018-09-13T06:10:01.454Z,1022.54
2018-09-13T06:11:11.023Z,1022.58
2018-09-13T06:12:20.595Z,1022.54
2018-09-13T06:13:30.231Z,1022.53
2018-09-13T06:14:40.759Z,1022.53
2018-09-13T06:15:50.068Z,1022.48
2018-09-13T06:17:00.187Z,1022.51
2018-09-13T06:18:09.764Z,1022.49
2018-09-13T06:19:19.363Z,1022.46
2018-09-13T06:20:29.480Z,1022.49
2018-09-13T06:21:39.099Z,1022.44
2018-09-13T06:22:48.675Z,1022.49
2018-09-13T06:23:58.547Z,1022.48
2018-09-13T06:25:08.117Z,1022.51
2018-09-13T06:26:18.236Z,1022.49
2018-09-13T06:27:27.813Z,1022.53
2018-09-13T06:28:37.383Z,1022.47
2018-09-13T06:29:47.496Z,1022.49
2018-09-13T06:30:57.337Z,1022.47
2018-09-13T06:32:06.934Z,1022.49
2018-09-13T06:33:16.511Z,1022.52
2018-09-13T06:34:26.618Z,1022.52
2018-09-13T06:35:35.922Z,1022.54
2018-09-13T06:36:45.771Z,1022.54
2018-09-13T06:37:55.877Z,1022.57
2018-09-13T06:39:05.177Z,1022.57
2018-09-13T06:40:14.759Z,1022.57
2018-09-13T06:41:24.870Z,1022.54
2018-09-13T06:42:33.995Z,1022.58
2018-09-13T06:43:44.138Z,1022.6
2018-09-13T06:44:53.980Z,1022.63
2018-09-13T06:46:03.010Z,1022.62
2018-09-13T06:47:12.869Z,1022.58
2018-09-13T06:48:22.709Z,1022.6
2018-09-13T06:49:32.664Z,1022.61
2018-09-13T06:50:42.504Z,1022.62
2018-09-13T06:51:52.080Z,1022.56
2018-09-13T06:53:01.927Z,1022.6
2018-09-13T06:54:11.810Z,1022.56
2018-09-13T06:55:22.123Z,1022.55
2018-09-13T06:56:32.180Z,1022.55
2018-09-13T06:57:42.329Z,1022.59
2018-09-13T06:58:52.442Z,1022.61
2018-09-13T07:00:01.474Z,1022.62
2018-09-13T07:01:11.616Z,1022.57
2018-09-13T07:02:21.827Z,1022.59
2018-09-13T07:03:31.951Z,1022.59
2018-09-13T07:04:41.790Z,1022.59
2018-09-13T07:05:51.630Z,1022.57
2018-09-13T07:07:01.476Z,1022.58
2018-09-13T07:08:11.464Z,1022.61
2018-09-13T07:09:21.311Z,1022.59
2018-09-13T07:10:31.336Z,1022.62
2018-09-13T07:11:41.176Z,1022.64
2018-09-13T07:12:50.473Z,1022.63
2018-09-13T07:14:00.049Z,1022.63
2018-09-13T07:15:09.083Z,1022.67
2018-09-13T07:16:18.689Z,1022.64
2018-09-13T07:17:27.989Z,1022.68
2018-09-13T07:18:37.830Z,1022.66
2018-09-13T07:19:47.715Z,1022.66
2018-09-13T07:20:57.293Z,1022.71
2018-09-13T07:22:07.159Z,1022.71
2018-09-13T07:23:16.462Z,1022.7
2018-09-13T07:24:26.312Z,1022.75
2018-09-13T07:25:35.614Z,1022.74
2018-09-13T07:26:45.790Z,1022.74
2018-09-13T07:27:55.366Z,1022.73
2018-09-13T07:29:05.507Z,1022.74
2018-09-13T07:30:15.077Z,1022.71
2018-09-13T07:31:24.969Z,1022.69
2018-09-13T07:32:34.815Z,1022.72
2018-09-13T07:33:44.934Z,1022.68
2018-09-13T07:34:55.048Z,1022.69
2018-09-13T07:36:04.618Z,1022.66
2018-09-13T07:37:14.515Z,1022.63
2018-09-13T07:38:24.359Z,1022.65
2018-09-13T07:39:34.209Z,1022.69
2018-09-13T07:40:44.314Z,1022.65
2018-09-13T07:41:53.648Z,1022.69
2018-09-13T07:43:03.751Z,1022.65
2018-09-13T07:44:13.599Z,1022.66
2018-09-13T07:45:23.448Z,1022.7
2018-09-13T07:46:32.747Z,1022.64
2018-09-13T07:47:42.591Z,1022.67
2018-09-13T07:48:52.438Z,1022.65
2018-09-13T07:50:02.411Z,1022.68
2018-09-13T07:51:12.324Z,1022.68
2018-09-13T07:52:22.540Z,1022.68
2018-09-13T07:53:31.840Z,1022.72
2018-09-13T07:54:41.732Z,1022.71
2018-09-13T07:55:51.086Z,1022.75
2018-09-13T07:57:00.785Z,1022.72
2018-09-13T07:58:10.086Z,1022.75
2018-09-13T07:59:19.934Z,1022.77
2018-09-13T08:00:28.973Z,1022.73
2018-09-13T08:01:38.543Z,1022.79
2018-09-13T08:02:48.388Z,1022.77
2018-09-13T08:03:57.961Z,1022.78
2018-09-13T08:05:07.920Z,1022.75
2018-09-13T08:06:17.672Z,1022.75
2018-09-13T08:07:27.513Z,1022.71
2018-09-13T08:08:37.352Z,1022.73
2018-09-13T08:09:46.925Z,1022.73
2018-09-13T08:10:56.493Z,1022.77
2018-09-13T08:12:06.260Z,1022.75
2018-09-13T08:13:16.555Z,1022.81
2018-09-13T08:14:26.394Z,1022.77
2018-09-13T08:15:36.508Z,1022.81
2018-09-13T08:16:46.430Z,1022.76
2018-09-13T08:17:56.058Z,1022.77
2018-09-13T08:19:05.902Z,1022.76
2018-09-13T08:20:15.483Z,1022.78
2018-09-13T08:21:25.320Z,1022.78
2018-09-13T08:22:35.549Z,1022.81
2018-09-13T08:23:45.144Z,1022.77
2018-09-13T08:24:54.990Z,1022.79
2018-09-13T08:26:04.566Z,1022.79
2018-09-13T08:27:14.756Z,1022.8
2018-09-13T08:28:24.838Z,1022.83
2018-09-13T08:29:34.674Z,1022.83
2018-09-13T08:30:44.522Z,1022.82
2018-09-13T08:31:54.847Z,1022.9
2018-09-13T08:33:04.154Z,1022.9
2018-09-13T08:34:13.592Z,1022.88
2018-09-13T08:35:23.165Z,1022.89
2018-09-13T08:36:33.148Z,1022.88
2018-09-13T08:37:43.268Z,1022.87
2018-09-13T08:38:52.840Z,1022.89
2018-09-13T08:40:02.550Z,1022.84
2018-09-13T08:41:12.417Z,1022.85
2018-09-13T08:42:22.676Z,1022.84
2018-09-13T08:43:31.988Z,1022.85
2018-09-13T08:44:41.297Z,1022.88
2018-09-13T08:45:50.864Z,1022.88
2018-09-13T08:47:00.714Z,1022.84
2018-09-13T08:48:10.514Z,1022.87
2018-09-13T08:49:19.817Z,1022.86
2018-09-13T08:50:29.941Z,1022.85
2018-09-13T08:51:39.244Z,1022.86
2018-09-13T08:52:48.868Z,1022.87
2018-09-13T08:53:58.708Z,1022.83
2018-09-13T08:55:08.902Z,1022.87
2018-09-13T08:56:19.595Z,1022.82
2018-09-13T08:57:29.444Z,1022.86
2018-09-13T08:58:39.622Z,1022.85
2018-09-13T08:59:49.766Z,1022.84
2018-09-13T09:00:59.879Z,1022.81
2018-09-13T09:02:09.451Z,1022.8
2018-09-13T09:03:19.326Z,1022.8
2018-09-13T09:04:29.447Z,1022.78
2018-09-13T09:05:39.288Z,1022.74
2018-09-13T09:06:49.128Z,1022.75
2018-09-13T09:07:58.700Z,1022.78
2018-09-13T09:09:08.838Z,1022.74
2018-09-13T09:10:18.437Z,1022.73
2018-09-13T09:11:28.045Z,1022.73
2018-09-13T09:12:37.405Z,1022.71
2018-09-13T09:13:46.977Z,1022.74
2018-09-13T09:14:56.283Z,1022.74
2018-09-13T09:16:05.779Z,1022.7
2018-09-13T09:17:15.364Z,1022.74
2018-09-13T09:18:24.729Z,1022.75
2018-09-13T09:19:34.809Z,1022.76
2018-09-13T09:20:44.924Z,1022.77
2018-09-13T09:21:54.769Z,1022.72
2018-09-13T09:23:03.803Z,1022.72
2018-09-13T09:24:13.658Z,1022.73
2018-09-13T09:25:23.225Z,1022.7
2018-09-13T09:26:33.338Z,1022.68
2018-09-13T09:27:43.231Z,1022.68
2018-09-13T09:28:53.157Z,1022.66
2018-09-13T09:30:02.557Z,1022.67
2018-09-13T09:31:11.867Z,1022.71
2018-09-13T09:32:21.428Z,1022.68
2018-09-13T09:33:30.996Z,1022.69
2018-09-13T09:34:40.883Z,1022.67
2018-09-13T09:35:50.367Z,1022.66
2018-09-13T09:36:59.938Z,1022.67
2018-09-13T09:38:09.509Z,1022.67
2018-09-13T09:39:19.346Z,1022.62
2018-09-13T09:40:29.258Z,1022.6
2018-09-13T09:41:39.485Z,1022.63
2018-09-13T09:42:48.787Z,1022.59
2018-09-13T09:43:58.372Z,1022.63
2018-09-13T09:45:08.422Z,1022.62
2018-09-13T09:46:18.264Z,1022.62
2018-09-13T09:47:28.380Z,1022.6
2018-09-13T09:48:38.490Z,1022.62
2018-09-13T09:49:48.059Z,1022.57
2018-09-13T09:50:57.416Z,1022.58
2018-09-13T09:52:06.790Z,1022.53
2018-09-13T09:53:16.825Z,1022.54
2018-09-13T09:54:26.393Z,1022.54
2018-09-13T09:55:35.426Z,1022.56
2018-09-13T09:56:45.001Z,1022.53
2018-09-13T09:57:55.133Z,1022.48
2018-09-13T09:59:04.519Z,1022.51
2018-09-13T10:00:14.093Z,1022.54
2018-09-13T10:01:23.667Z,1022.55
2018-09-13T10:02:33.776Z,1022.53
2018-09-13T10:03:43.353Z,1022.5
2018-09-13T10:04:53.227Z,1022.44
2018-09-13T10:06:03.335Z,1022.51
2018-09-13T10:07:12.949Z,1022.46
2018-09-13T10:08:23.062Z,1022.5
2018-09-13T10:09:32.098Z,1022.44
2018-09-13T10:10:42.445Z,1022.45
2018-09-13T10:11:52.016Z,1022.46
2018-09-13T10:13:02.299Z,1022.43
2018-09-13T10:14:11.866Z,1022.43
2018-09-13T10:15:21.198Z,1022.45
2018-09-13T10:16:31.036Z,1022.49
2018-09-13T10:17:40.610Z,1022.47
2018-09-13T10:18:50.450Z,1022.5
2018-09-13T10:20:00.288Z,1022.5
2018-09-13T10:21:09.874Z,1022.48
2018-09-13T10:22:19.715Z,1022.46
2018-09-13T10:23:29.290Z,1022.51
2018-09-13T10:24:38.751Z,1022.48
2018-09-13T10:25:48.871Z,1022.5
2018-09-13T10:26:58.797Z,1022.47
2018-09-13T10:28:09.037Z,1022.42
2018-09-13T10:29:19.024Z,1022.41
2018-09-13T10:30:29.840Z,1022.36
2018-09-13T10:31:39.683Z,1022.4
2018-09-13T10:32:49.259Z,1022.34
2018-09-13T10:33:58.864Z,1022.33
2018-09-13T10:35:07.897Z,1022.32
2018-09-13T10:36:17.476Z,1022.31
2018-09-13T10:37:26.782Z,1022.29
2018-09-13T10:38:36.910Z,1022.32
2018-09-13T10:39:46.510Z,1022.34
2018-09-13T10:40:56.353Z,1022.33
2018-09-13T10:42:06.206Z,1022.34
2018-09-13T10:43:15.511Z,1022.33
2018-09-13T10:44:25.648Z,1022.3
2018-09-13T10:45:35.489Z,1022.36
2018-09-13T10:46:45.335Z,1022.31
2018-09-13T10:47:56.929Z,1022.32
2018-09-13T10:49:07.696Z,1022.32
2018-09-13T10:50:17.582Z,1022.32
2018-09-13T10:51:27.313Z,1022.32
2018-09-13T10:52:37.196Z,1022.23
2018-09-13T10:53:47.505Z,1022.25
2018-09-13T10:54:57.369Z,1022.21
2018-09-13T10:56:06.952Z,1022.23
2018-09-13T10:57:16.807Z,1022.16
2018-09-13T10:58:26.656Z,1022.18
2018-09-13T10:59:36.506Z,1022.17
2018-09-13T11:00:46.370Z,1022.18
2018-09-13T11:01:56.163Z,1022.19
2018-09-13T11:03:06.277Z,1022.1
2018-09-13T11:04:15.974Z,1022.12
2018-09-13T11:05:25.493Z,1022.13
2018-09-13T11:06:35.238Z,1022.07
2018-09-13T11:07:45.351Z,1022.14
2018-09-13T11:08:55.201Z,1022.1
2018-09-13T11:10:05.045Z,1022.09
2018-09-13T11:11:14.376Z,1022.08
2018-09-13T11:12:24.654Z,1022.08
2018-09-13T11:13:34.510Z,1022.09
2018-09-13T11:14:44.357Z,1022.1
2018-09-13T11:15:53.405Z,1022.03
2018-09-13T11:17:03.242Z,1022.01
2018-09-13T11:18:13.350Z,1022
2018-09-13T11:19:23.426Z,1021.96
2018-09-13T11:20:33.012Z,1021.99
2018-09-13T11:21:42.874Z,1021.93
2018-09-13T11:22:52.732Z,1021.92
2018-09-13T11:24:02.577Z,1021.96
2018-09-13T11:25:12.143Z,1021.96
2018-09-13T11:26:21.755Z,1021.93
2018-09-13T11:27:31.607Z,1021.91
2018-09-13T11:28:41.184Z,1021.89
2018-09-13T11:29:51.061Z,1021.9
2018-09-13T11:31:00.653Z,1021.92
2018-09-13T11:32:10.228Z,1021.96
2018-09-13T11:33:20.362Z,1021.91
2018-09-13T11:34:29.942Z,1021.95
2018-09-13T11:35:39.841Z,1021.92
2018-09-13T11:36:48.874Z,1021.91
2018-09-13T11:37:58.716Z,1021.89
2018-09-13T11:39:08.522Z,1021.88
2018-09-13T11:40:18.312Z,1021.89
2018-09-13T11:41:29.418Z,1021.89
2018-09-13T11:42:38.452Z,1021.89
2018-09-13T11:43:48.026Z,1021.85
2018-09-13T11:44:57.331Z,1021.86
2018-09-13T11:46:06.902Z,1021.91
2018-09-13T11:47:16.517Z,1021.87
2018-09-13T11:48:26.423Z,1021.89
2018-09-13T11:49:35.992Z,1021.9
2018-09-13T11:50:45.837Z,1021.87
2018-09-13T11:51:55.150Z,1021.91
2018-09-13T11:53:04.992Z,1021.88
2018-09-13T11:54:14.854Z,1021.95
2018-09-13T11:55:24.984Z,1021.94
2018-09-13T11:56:34.820Z,1021.94
2018-09-13T11:57:44.124Z,1021.94
2018-09-13T11:58:53.430Z,1021.96
2018-09-13T12:00:03.557Z,1021.94
2018-09-13T12:01:13.205Z,1021.94
2018-09-13T12:02:23.335Z,1021.95
2018-09-13T12:03:32.920Z,1021.96
2018-09-13T12:04:42.007Z,1021.89
2018-09-13T12:05:51.854Z,1021.88
2018-09-13T12:07:01.705Z,1021.87
2018-09-13T12:08:11.554Z,1021.87
2018-09-13T12:09:20.877Z,1021.85
2018-09-13T12:10:31.024Z,1021.87
2018-09-13T12:11:40.903Z,1021.82
2018-09-13T12:12:51.038Z,1021.84
2018-09-13T12:14:00.886Z,1021.84
2018-09-13T12:15:10.940Z,1021.81
2018-09-13T12:16:21.049Z,1021.81
2018-09-13T12:17:30.360Z,1021.81
2018-09-13T12:18:39.932Z,1021.8
2018-09-13T12:19:48.982Z,1021.81
2018-09-13T12:20:58.832Z,1021.83
2018-09-13T12:22:08.413Z,1021.84
2018-09-13T12:23:17.757Z,1021.82
2018-09-13T12:24:28.078Z,1021.8
2018-09-13T12:25:37.664Z,1021.81
2018-09-13T12:26:47.511Z,1021.82
2018-09-13T12:27:57.142Z,1021.83
2018-09-13T12:29:06.452Z,1021.81
2018-09-13T12:30:16.089Z,1021.81
2018-09-13T12:31:25.893Z,1021.77
2018-09-13T12:32:35.517Z,1021.73
2018-09-13T12:33:45.698Z,1021.71
2018-09-13T12:34:55.712Z,1021.68
2018-09-13T12:36:05.561Z,1021.7
2018-09-13T12:37:15.957Z,1021.71
2018-09-13T12:38:25.262Z,1021.67
2018-09-13T12:39:35.190Z,1021.67
2018-09-13T12:40:45.310Z,1021.67
2018-09-13T12:41:55.159Z,1021.64
2018-09-13T12:43:05.067Z,1021.7
2018-09-13T12:44:14.912Z,1021.67
2018-09-13T12:45:24.781Z,1021.64
2018-09-13T12:46:34.363Z,1021.6
2018-09-13T12:47:44.206Z,1021.64
2018-09-13T12:48:54.051Z,1021.61
2018-09-13T12:50:04.230Z,1021.59
2018-09-13T12:51:13.752Z,1021.63
2018-09-13T12:52:23.361Z,1021.58
2018-09-13T12:53:32.913Z,1021.61
2018-09-13T12:54:42.770Z,1021.58
2018-09-13T12:55:52.883Z,1021.56
2018-09-13T12:57:02.241Z,1021.58
2018-09-13T12:58:11.315Z,1021.56
2018-09-13T12:59:20.899Z,1021.55
2018-09-13T13:00:30.746Z,1021.51
2018-09-13T13:01:40.325Z,1021.52
2018-09-13T13:02:50.185Z,1021.54
2018-09-13T13:04:00.037Z,1021.52
2018-09-13T13:05:09.878Z,1021.5
2018-09-13T13:06:19.480Z,1021.48
2018-09-13T13:07:29.052Z,1021.48
2018-09-13T13:08:38.091Z,1021.49
2018-09-13T13:09:48.428Z,1021.46
2018-09-13T13:10:58.001Z,1021.48
2018-09-13T13:12:07.308Z,1021.47
2018-09-13T13:13:16.892Z,1021.46
2018-09-13T13:14:26.470Z,1021.47
2018-09-13T13:15:35.238Z,1021.45
2018-09-13T13:16:44.975Z,1021.43
2018-09-13T13:17:54.774Z,1021.42
2018-09-13T13:19:04.348Z,1021.48
2018-09-13T13:20:13.931Z,1021.44
2018-09-13T13:21:22.971Z,1021.45
2018-09-13T13:22:33.089Z,1021.45
2018-09-13T13:23:43.166Z,1021.45
2018-09-13T13:24:53.276Z,1021.45
2018-09-13T13:26:03.399Z,1021.44
2018-09-13T13:27:13.013Z,1021.41
2018-09-13T13:28:22.948Z,1021.43
2018-09-13T13:29:32.528Z,1021.4
2018-09-13T13:30:42.135Z,1021.41
2018-09-13T13:31:51.982Z,1021.38
2018-09-13T13:33:01.291Z,1021.39
2018-09-13T13:34:10.878Z,1021.39
2018-09-13T13:35:20.458Z,1021.37
2018-09-13T13:36:30.042Z,1021.31
2018-09-13T13:37:40.111Z,1021.35
2018-09-13T13:38:49.681Z,1021.33
2018-09-13T13:39:58.719Z,1021.33
2018-09-13T13:41:08.312Z,1021.28
2018-09-13T13:42:18.404Z,1021.33
2018-09-13T13:43:28.519Z,1021.31
2018-09-13T13:44:38.363Z,1021.35
2018-09-13T13:45:48.492Z,1021.3
2018-09-13T13:46:58.348Z,1021.3
2018-09-13T13:48:07.699Z,1021.25
2018-09-13T13:49:17.328Z,1021.27
2018-09-13T13:50:27.406Z,1021.27
2018-09-13T13:51:37.595Z,1021.25
2018-09-13T13:52:47.439Z,1021.26
2018-09-13T13:53:57.290Z,1021.24
2018-09-13T13:55:06.600Z,1021.27
2018-09-13T13:56:16.460Z,1021.25
2018-09-13T13:57:26.310Z,1021.18
2018-09-13T13:58:36.159Z,1021.23
2018-09-13T13:59:45.524Z,1021.17
2018-09-13T14:00:55.561Z,1021.18
2018-09-13T14:02:05.143Z,1021.2
2018-09-13T14:03:14.991Z,1021.16
2018-09-13T14:04:24.844Z,1021.14
2018-09-13T14:05:34.689Z,1021.14
2018-09-13T14:06:44.549Z,1021.14